Time,TemperatureF,DewpointF,PressureIn,WindDirection,WindDirectionDegrees,WindSpeedMPH,WindSpeedGustMPH,Humidity,HourlyPrecipIn,Conditions,Clouds,dailyrainin,SoftwareType,DateUTC
2013-02-16 00:00:00,31.5,19.9,28.97,NE,35,0.4,3.1,58,-99.99,,,-99.99,WSDL version 420,2013-02-16 05:00:00,
2013-02-16 00:01:00,31.5,19.9,28.97,ENE,65,0.0,3.1,58,-99.99,,,-99.99,WSDL version 420,2013-02-16 05:01:00,
2013-02-16 00:06:00,31.2,19.9,28.97,East,79,0.4,2.5,59,0.00,,,0.00,WSDL version 420,2013-02-16 05:06:00,
2013-02-16 00:09:00,31.1,19.9,28.97,ESE,113,0.0,2.5,59,-99.99,,,-99.99,WSDL version 420,2013-02-16 05:09:00,
2013-02-16 00:14:00,30.9,19.7,28.97,ENE,68,0.0,1.6,59,-99.99,,,-99.99,WSDL version 420,2013-02-16 05:14:00,
2013-02-16 00:19:00,30.6,19.4,28.97,ENE,68,0.0,0.0,59,-99.99,,,-99.99,WSDL version 420,2013-02-16 05:19:00,
2013-02-16 00:23:00,30.5,19.5,28.97,ENE,68,0.0,0.0,60,-99.99,,,-99.99,WSDL version 420,2013-02-16 05:23:00,
2013-02-16 00:28:00,30.3,19.6,28.97,ENE,68,0.0,0.0,61,-99.99,,,-99.99,WSDL version 420,2013-02-16 05:28:00,
2013-02-16 00:33:00,30.1,19.6,28.97,WNW,293,0.0,0.0,61,0.00,,,0.00,WSDL version 420,2013-02-16 05:33:00,
2013-02-16 00:38:00,30.1,19.6,28.97,WNW,293,0.0,0.0,62,-99.99,,,-99.99,WSDL version 420,2013-02-16 05:38:00,
2013-02-16 00:43:00,30.0,19.9,28.97,WNW,293,0.0,0.0,62,-99.99,,,-99.99,WSDL version 420,2013-02-16 05:43:00,
2013-02-16 00:48:00,30.1,20.3,28.97,WNW,293,1.1,1.6,63,-99.99,,,-99.99,WSDL version 420,2013-02-16 05:48:00,
2013-02-16 00:53:00,30.2,20.7,28.97,WNW,293,0.0,1.6,64,0.00,,,0.00,WSDL version 420,2013-02-16 05:53:00,
2013-02-16 00:55:00,30.4,20.8,28.97,WNW,293,0.0,1.6,64,0.00,,,0.00,WSDL version 420,2013-02-16 05:55:00,
2013-02-16 01:00:00,30.6,21.3,28.97,WNW,293,0.0,0.0,65,-99.99,,,-99.99,WSDL version 420,2013-02-16 06:00:00,
2013-02-16 01:05:00,30.6,21.5,28.97,WNW,293,0.0,0.0,66,-99.99,,,-99.99,WSDL version 420,2013-02-16 06:05:00,
2013-02-16 01:10:00,30.8,22.0,28.97,WNW,293,0.0,1.6,66,0.00,,,0.00,WSDL version 420,2013-02-16 06:10:00,
2013-02-16 01:15:00,31.0,22.3,28.97,NW,315,2.6,3.1,67,-99.99,,,-99.99,WSDL version 420,2013-02-16 06:15:00,
2013-02-16 01:20:00,31.1,22.7,28.97,WNW,293,1.2,3.1,68,0.00,,,0.00,WSDL version 420,2013-02-16 06:20:00,
2013-02-16 01:25:00,31.2,23.2,28.97,WNW,290,2.3,4.0,69,-99.99,,,-99.99,WSDL version 420,2013-02-16 06:25:00,
2013-02-16 01:30:00,31.5,23.8,28.97,West,276,1.5,4.0,70,-99.99,,,-99.99,WSDL version 420,2013-02-16 06:30:00,
2013-02-16 01:35:00,31.5,23.6,28.94,NW,315,1.2,3.1,69,0.00,,,0.00,WSDL version 420,2013-02-16 06:35:00,
2013-02-16 01:40:00,31.5,23.4,28.94,WNW,295,2.7,4.0,68,0.00,,,0.00,WSDL version 420,2013-02-16 06:40:00,
2013-02-16 01:45:00,31.5,23.0,28.94,WNW,303,1.3,4.0,67,0.00,,,0.00,WSDL version 420,2013-02-16 06:45:00,
2013-02-16 01:50:00,31.3,22.4,28.94,NW,309,1.2,2.5,65,-99.99,,,-99.99,WSDL version 420,2013-02-16 06:50:00,
2013-02-16 01:55:00,31.3,22.1,28.94,NW,315,0.0,2.5,65,-99.99,,,-99.99,WSDL version 420,2013-02-16 06:55:00,
2013-02-16 02:00:00,31.1,21.6,28.94,NW,315,0.0,0.0,64,-99.99,,,-99.99,WSDL version 420,2013-02-16 07:00:00,
2013-02-16 02:05:00,31.1,21.6,28.94,West,270,0.0,2.0,64,-99.99,,,-99.99,WSDL version 420,2013-02-16 07:05:00,
2013-02-16 02:10:00,31.1,21.6,28.94,WNW,293,0.0,2.0,64,-99.99,,,-99.99,WSDL version 420,2013-02-16 07:10:00,
2013-02-16 02:15:00,31.1,21.2,28.94,NW,318,1.8,2.5,63,-99.99,,,-99.99,WSDL version 420,2013-02-16 07:15:00,
2013-02-16 02:20:00,31.1,21.3,28.94,NNW,328,1.6,3.4,64,-99.99,,,-99.99,WSDL version 420,2013-02-16 07:20:00,
2013-02-16 02:25:00,31.1,21.8,28.94,WNW,293,5.3,9.6,66,-99.99,,,-99.99,WSDL version 420,2013-02-16 07:25:00,
2013-02-16 02:30:00,30.4,21.2,28.94,NW,310,5.1,9.8,64,0.00,,,0.00,WSDL version 420,2013-02-16 07:30:00,
2013-02-16 02:35:00,29.7,19.5,28.94,NNW,343,3.2,9.8,61,0.00,,,0.00,WSDL version 420,2013-02-16 07:35:00,
2013-02-16 02:40:00,29.2,17.6,28.94,NW,321,4.0,8.5,56,-99.99,,,-99.99,WSDL version 420,2013-02-16 07:40:00,
2013-02-16 02:45:00,28.9,16.4,28.94,NW,313,4.4,9.8,55,0.00,,,0.00,WSDL version 420,2013-02-16 07:45:00,
2013-02-16 02:50:00,28.6,16.0,28.94,ESE,104,3.8,9.8,55,0.00,,,0.00,WSDL version 420,2013-02-16 07:50:00,
2013-02-16 02:55:00,28.3,15.8,28.94,NNE,20,4.1,8.5,55,0.00,,,0.00,WSDL version 420,2013-02-16 07:55:00,
2013-02-16 03:00:00,28.2,15.7,28.94,NW,326,3.4,8.5,55,0.00,,,0.00,WSDL version 420,2013-02-16 08:00:00,
2013-02-16 03:05:00,28.0,15.5,28.94,NNE,16,3.6,6.5,55,-99.99,,,-99.99,WSDL version 420,2013-02-16 08:05:00,
2013-02-16 03:10:00,27.9,15.3,28.94,ENE,60,1.6,6.5,54,0.00,,,0.00,WSDL version 420,2013-02-16 08:10:00,
2013-02-16 03:15:00,27.9,14.6,28.94,NW,318,3.0,6.0,52,0.00,,,0.00,WSDL version 420,2013-02-16 08:15:00,
2013-02-16 03:20:00,27.9,14.1,28.94,NNW,335,3.2,6.0,51,0.00,,,0.00,WSDL version 420,2013-02-16 08:20:00,
2013-02-16 03:25:00,27.9,13.6,28.94,NE,34,3.2,6.0,49,0.00,,,0.00,WSDL version 420,2013-02-16 08:25:00,
2013-02-16 03:30:00,27.9,13.1,28.94,NNW,330,1.7,6.0,50,0.00,,,0.00,WSDL version 420,2013-02-16 08:30:00,
2013-02-16 03:35:00,27.9,13.1,28.94,North,352,2.9,4.9,49,-99.99,,,-99.99,WSDL version 420,2013-02-16 08:35:00,
2013-02-16 03:40:00,27.9,13.0,28.94,West,273,0.9,4.9,49,0.00,,,0.00,WSDL version 420,2013-02-16 08:40:00,
2013-02-16 03:45:00,27.9,13.4,28.94,NNE,33,1.4,3.4,50,-99.99,,,-99.99,WSDL version 420,2013-02-16 08:45:00,
2013-02-16 03:50:00,27.9,13.6,28.94,SE,143,0.0,2.7,51,-99.99,,,-99.99,WSDL version 420,2013-02-16 08:50:00,
2013-02-16 03:55:00,27.9,13.8,28.94,NNW,333,1.7,2.9,51,0.00,,,0.00,WSDL version 420,2013-02-16 08:55:00,
2013-02-16 04:00:00,27.9,13.8,28.94,East,100,0.5,2.9,51,-99.99,,,-99.99,WSDL version 420,2013-02-16 09:00:00,
2013-02-16 04:05:00,27.9,13.9,28.94,SE,133,0.0,2.9,52,0.00,,,0.00,WSDL version 420,2013-02-16 09:05:00,
2013-02-16 04:10:00,27.9,14.2,28.94,SE,138,0.5,2.5,52,-99.99,,,-99.99,WSDL version 420,2013-02-16 09:10:00,
2013-02-16 04:15:00,27.9,13.8,28.94,NE,34,2.1,6.0,51,-99.99,,,-99.99,WSDL version 420,2013-02-16 09:15:00,
2013-02-16 04:20:00,27.8,13.7,28.94,ESE,120,1.4,6.0,51,-99.99,,,-99.99,WSDL version 420,2013-02-16 09:20:00,
2013-02-16 04:25:00,27.7,13.2,28.94,East,96,0.7,4.7,50,-99.99,,,-99.99,WSDL version 420,2013-02-16 09:25:00,
2013-02-16 04:30:00,27.7,12.8,28.94,East,95,0.6,4.0,49,0.00,,,0.00,WSDL version 420,2013-02-16 09:30:00,
2013-02-16 04:35:00,27.7,12.7,28.94,West,262,1.5,2.9,48,-99.99,,,-99.99,WSDL version 420,2013-02-16 09:35:00,
2013-02-16 04:40:00,27.5,12.0,28.94,SSE,158,0.0,2.9,47,-99.99,,,-99.99,WSDL version 420,2013-02-16 09:40:00,
2013-02-16 04:45:00,27.5,11.8,28.94,NE,43,1.3,2.7,47,-99.99,,,-99.99,WSDL version 420,2013-02-16 09:45:00,
2013-02-16 04:50:00,27.4,11.5,28.94,West,278,1.0,2.9,46,-99.99,,,-99.99,WSDL version 420,2013-02-16 09:50:00,
2013-02-16 04:55:00,27.1,10.7,28.94,East,101,0.4,4.0,45,-99.99,,,-99.99,WSDL version 420,2013-02-16 09:55:00,
2013-02-16 05:00:00,27.0,10.1,28.94,North,357,2.1,4.0,43,0.00,,,0.00,WSDL version 420,2013-02-16 10:00:00,
2013-02-16 05:05:00,26.8,9.8,28.94,WNW,300,1.6,4.0,44,-99.99,,,-99.99,WSDL version 420,2013-02-16 10:05:00,
2013-02-16 05:10:00,26.6,9.5,28.94,NW,304,2.0,3.8,44,0.00,,,0.00,WSDL version 420,2013-02-16 10:10:00,
2013-02-16 05:15:00,26.5,9.6,28.94,NW,315,0.0,3.8,44,0.00,,,0.00,WSDL version 420,2013-02-16 10:15:00,
2013-02-16 05:20:00,26.3,9.4,28.94,ENE,75,0.7,2.7,44,0.00,,,0.00,WSDL version 420,2013-02-16 10:20:00,
2013-02-16 05:25:00,26.1,9.2,28.94,South,172,1.0,2.7,44,0.00,,,0.00,WSDL version 420,2013-02-16 10:25:00,
2013-02-16 05:30:00,26.0,9.1,28.94,NNW,330,1.7,4.3,44,0.00,,,0.00,WSDL version 420,2013-02-16 10:30:00,
2013-02-16 05:35:00,25.7,8.9,28.94,SW,231,0.0,4.3,45,-99.99,,,-99.99,WSDL version 420,2013-02-16 10:35:00,
2013-02-16 05:40:00,25.6,9.2,28.94,NW,315,0.0,2.5,45,0.00,,,0.00,WSDL version 420,2013-02-16 10:40:00,
2013-02-16 05:45:00,25.3,8.9,28.94,NW,321,1.2,2.9,45,0.00,,,0.00,WSDL version 420,2013-02-16 10:45:00,
2013-02-16 05:50:00,25.3,8.9,28.94,NE,43,0.0,2.9,45,0.00,,,0.00,WSDL version 420,2013-02-16 10:50:00,
2013-02-16 05:55:00,25.2,8.9,28.94,North,355,1.8,2.9,46,0.00,,,0.00,WSDL version 420,2013-02-16 10:55:00,
2013-02-16 06:00:00,25.1,9.1,28.94,NW,315,0.4,2.7,46,0.00,,,0.00,WSDL version 420,2013-02-16 11:00:00,
2013-02-16 06:05:00,24.9,9.0,28.94,East,83,0.5,2.5,46,0.00,,,0.00,WSDL version 420,2013-02-16 11:05:00,
2013-02-16 06:10:00,24.7,8.9,28.94,WSW,245,0.0,2.5,47,-99.99,,,-99.99,WSDL version 420,2013-02-16 11:10:00,
2013-02-16 06:15:00,24.3,8.5,28.94,NE,45,0.0,0.0,47,-99.99,,,-99.99,WSDL version 420,2013-02-16 11:15:00,
2013-02-16 06:20:00,24.0,8.5,28.94,NNW,329,0.6,2.7,47,0.00,,,0.00,WSDL version 420,2013-02-16 11:20:00,
2013-02-16 06:25:00,23.8,8.4,28.94,WNW,288,1.9,3.8,48,0.00,,,0.00,WSDL version 420,2013-02-16 11:25:00,
2013-02-16 06:30:00,23.8,8.8,28.94,WNW,293,1.5,3.8,48,-99.99,,,-99.99,WSDL version 420,2013-02-16 11:30:00,
2013-02-16 06:35:00,23.7,9.1,28.94,NW,313,2.0,2.7,49,-99.99,,,-99.99,WSDL version 420,2013-02-16 11:35:00,
2013-02-16 06:40:00,23.9,9.8,28.94,NNW,330,1.4,2.9,51,-99.99,,,-99.99,WSDL version 420,2013-02-16 11:40:00,
2013-02-16 06:45:00,24.0,10.3,28.94,WNW,298,2.5,4.0,52,-99.99,,,-99.99,WSDL version 420,2013-02-16 11:45:00,
2013-02-16 06:50:00,24.1,10.7,28.94,NNW,335,0.4,4.0,52,-99.99,,,-99.99,WSDL version 420,2013-02-16 11:50:00,
2013-02-16 06:55:00,24.3,10.9,28.94,WNW,293,2.2,3.8,53,-99.99,,,-99.99,WSDL version 420,2013-02-16 11:55:00,
2013-02-16 07:00:00,24.4,11.4,28.94,NW,320,0.7,3.1,53,0.00,,,0.00,WSDL version 420,2013-02-16 12:00:00,
2013-02-16 07:05:00,24.6,11.4,28.94,NW,305,1.0,2.2,52,0.00,,,0.00,WSDL version 420,2013-02-16 12:05:00,
2013-02-16 07:10:00,24.7,11.4,28.94,WNW,293,0.0,2.7,52,-99.99,,,-99.99,WSDL version 420,2013-02-16 12:10:00,
2013-02-16 07:15:00,24.8,11.3,28.94,NE,40,1.3,2.7,52,0.00,,,0.00,WSDL version 420,2013-02-16 12:15:00,
2013-02-16 07:20:00,24.7,11.2,28.94,NW,315,0.0,2.2,52,-99.99,,,-99.99,WSDL version 420,2013-02-16 12:20:00,
2013-02-16 07:25:00,24.8,11.3,28.94,NW,315,0.0,1.6,52,0.00,,,0.00,WSDL version 420,2013-02-16 12:25:00,
2013-02-16 07:30:00,24.8,11.3,28.94,NW,315,0.0,1.6,52,-99.99,,,-99.99,WSDL version 420,2013-02-16 12:30:00,
2013-02-16 07:35:00,24.9,11.3,28.97,NW,315,0.0,1.3,52,-99.99,,,-99.99,WSDL version 420,2013-02-16 12:35:00,
2013-02-16 07:40:00,25.2,11.6,28.97,NW,315,0.0,1.3,52,-99.99,,,-99.99,WSDL version 420,2013-02-16 12:40:00,
2013-02-16 07:45:00,25.4,11.8,28.97,NW,315,0.6,1.6,52,0.00,,,0.00,WSDL version 420,2013-02-16 12:45:00,
2013-02-16 07:50:00,25.6,12.1,28.94,NW,315,0.0,1.6,52,0.00,,,0.00,WSDL version 420,2013-02-16 12:50:00,
2013-02-16 07:55:00,26.0,12.4,28.94,WNW,295,1.6,2.7,52,-99.99,,,-99.99,WSDL version 420,2013-02-16 12:55:00,
2013-02-16 08:00:00,26.3,12.8,28.94,WNW,295,0.6,2.7,52,-99.99,,,-99.99,WSDL version 420,2013-02-16 13:00:00,
2013-02-16 08:05:00,26.8,12.9,28.94,NW,304,1.9,2.5,51,-99.99,,,-99.99,WSDL version 420,2013-02-16 13:05:00,
2013-02-16 08:10:00,27.0,12.8,28.94,WNW,299,1.9,3.6,50,-99.99,,,-99.99,WSDL version 420,2013-02-16 13:10:00,
2013-02-16 08:15:00,27.2,12.0,28.94,WNW,293,2.3,3.8,48,0.00,,,0.00,WSDL version 420,2013-02-16 13:15:00,
2013-02-16 08:20:00,27.5,11.8,28.94,WNW,296,1.5,3.8,47,-99.99,,,-99.99,WSDL version 420,2013-02-16 13:20:00,
2013-02-16 08:25:00,27.7,11.6,28.94,NW,310,1.6,3.8,46,-99.99,,,-99.99,WSDL version 420,2013-02-16 13:25:00,
2013-02-16 08:30:00,27.8,11.4,28.94,NW,309,2.5,4.3,45,0.00,,,0.00,WSDL version 420,2013-02-16 13:30:00,
2013-02-16 08:35:00,27.9,10.9,28.94,NNE,30,1.5,4.3,44,0.00,,,0.00,WSDL version 420,2013-02-16 13:35:00,
2013-02-16 08:40:00,28.2,11.2,28.94,NW,304,2.5,3.1,44,0.00,,,0.00,WSDL version 420,2013-02-16 13:40:00,
2013-02-16 08:45:00,28.3,11.3,28.94,NW,325,0.4,3.1,44,0.00,,,0.00,WSDL version 420,2013-02-16 13:45:00,
2013-02-16 08:50:00,28.5,11.4,28.94,NNW,333,0.4,2.9,44,0.00,,,0.00,WSDL version 420,2013-02-16 13:50:00,
2013-02-16 08:55:00,28.3,11.1,28.94,WNW,293,1.5,3.1,44,-99.99,,,-99.99,WSDL version 420,2013-02-16 13:55:00,
2013-02-16 09:00:00,28.4,11.0,28.94,NW,308,1.1,4.7,43,-99.99,,,-99.99,WSDL version 420,2013-02-16 14:00:00,
2013-02-16 09:05:00,28.6,11.1,28.94,NW,309,1.9,4.7,43,0.00,,,0.00,WSDL version 420,2013-02-16 14:05:00,
2013-02-16 09:10:00,28.9,11.3,28.94,West,280,0.5,2.7,43,-99.99,,,-99.99,WSDL version 420,2013-02-16 14:10:00,
2013-02-16 09:15:00,29.0,11.1,28.94,NW,309,2.3,3.4,42,-99.99,,,-99.99,WSDL version 420,2013-02-16 14:15:00,
2013-02-16 09:20:00,29.3,11.1,28.94,NW,315,0.0,3.4,42,-99.99,,,-99.99,WSDL version 420,2013-02-16 14:20:00,
2013-02-16 09:25:00,29.5,11.1,28.94,South,180,0.0,1.6,41,0.00,,,0.00,WSDL version 420,2013-02-16 14:25:00,
2013-02-16 09:30:00,29.8,11.2,28.94,ENE,73,0.6,1.6,41,0.00,,,0.00,WSDL version 420,2013-02-16 14:30:00,
2013-02-16 09:35:00,29.9,11.3,28.94,ENE,78,1.3,2.5,41,0.00,,,0.00,WSDL version 420,2013-02-16 14:35:00,
2013-02-16 09:40:00,29.7,10.3,28.94,SE,135,0.0,2.5,39,0.00,,,0.00,WSDL version 420,2013-02-16 14:40:00,
2013-02-16 09:45:00,29.9,10.9,28.94,SE,135,0.0,1.6,41,-99.99,,,-99.99,WSDL version 420,2013-02-16 14:45:00,
2013-02-16 09:50:00,30.3,11.5,28.94,SE,124,0.0,1.1,40,-99.99,,,-99.99,WSDL version 420,2013-02-16 14:50:00,
2013-02-16 09:55:00,30.7,11.5,28.94,NNW,338,0.0,1.1,40,-99.99,,,-99.99,WSDL version 420,2013-02-16 14:55:00,
2013-02-16 10:00:00,30.8,11.6,28.94,East,90,0.0,2.0,39,0.00,,,0.00,WSDL version 420,2013-02-16 15:00:00,
2013-02-16 10:05:00,31.2,11.2,28.94,SSE,166,0.0,2.0,38,-99.99,,,-99.99,WSDL version 420,2013-02-16 15:05:00,
2013-02-16 10:10:00,31.0,11.0,28.94,South,180,0.0,1.6,38,0.00,,,0.00,WSDL version 420,2013-02-16 15:10:00,
2013-02-16 10:15:00,31.3,11.5,28.94,West,281,0.0,2.9,39,-99.99,,,-99.99,WSDL version 420,2013-02-16 15:15:00,
2013-02-16 10:20:00,31.6,11.3,28.94,NW,310,0.6,2.9,37,0.00,,,0.00,WSDL version 420,2013-02-16 15:20:00,
2013-02-16 10:25:00,32.4,9.2,28.94,North,360,0.9,2.9,36,0.00,,,0.00,WSDL version 420,2013-02-16 15:25:00,
2013-02-16 10:30:00,32.5,7.6,28.94,NNW,333,2.5,3.6,34,0.00,,,0.00,WSDL version 420,2013-02-16 15:30:00,
2013-02-16 10:35:00,32.2,6.1,28.94,NNW,333,0.7,3.8,31,0.00,,,0.00,WSDL version 420,2013-02-16 15:35:00,
2013-02-16 10:40:00,32.5,5.2,28.94,WSW,250,0.0,3.8,31,-99.99,,,-99.99,WSDL version 420,2013-02-16 15:40:00,
2013-02-16 10:45:00,32.7,5.3,28.94,West,260,2.0,2.9,30,0.00,,,0.00,WSDL version 420,2013-02-16 15:45:00,
2013-02-16 10:50:00,32.8,4.7,28.91,NNW,338,0.8,3.6,30,0.00,,,0.00,WSDL version 420,2013-02-16 15:50:00,
2013-02-16 10:55:00,33.8,5.4,28.91,WNW,295,2.0,5.6,29,0.00,,,0.00,WSDL version 420,2013-02-16 15:55:00,
2013-02-16 11:00:00,33.1,1.1,28.91,SE,135,0.3,5.6,25,-99.99,,,-99.99,WSDL version 420,2013-02-16 16:00:00,
2013-02-16 11:05:00,33.0,1.4,28.91,South,180,0.0,4.3,25,0.00,,,0.00,WSDL version 420,2013-02-16 16:05:00,
2013-02-16 11:10:00,32.5,3.0,28.91,WSW,245,1.3,2.2,28,0.00,,,0.00,WSDL version 420,2013-02-16 16:10:00,
2013-02-16 11:15:00,32.5,3.0,28.91,SSE,158,0.4,2.5,28,-99.99,,,-99.99,WSDL version 420,2013-02-16 16:15:00,
2013-02-16 11:20:00,32.7,3.2,28.91,WSW,248,1.3,2.5,28,-99.99,,,-99.99,WSDL version 420,2013-02-16 16:20:00,
2013-02-16 11:25:00,32.1,2.5,28.91,NNW,329,1.7,2.9,28,0.00,,,0.00,WSDL version 420,2013-02-16 16:25:00,
2013-02-16 11:30:00,32.4,2.4,28.91,WNW,298,1.5,3.8,25,0.00,,,0.00,WSDL version 420,2013-02-16 16:30:00,
2013-02-16 11:35:00,32.6,1.1,28.91,NNW,332,3.1,4.5,25,0.00,,,0.00,WSDL version 420,2013-02-16 16:35:00,
2013-02-16 11:40:00,32.9,0.9,28.91,NW,325,3.5,6.5,25,0.00,,,0.00,WSDL version 420,2013-02-16 16:40:00,
2013-02-16 11:45:00,34.8,2.3,28.91,NW,312,3.0,6.5,24,0.00,,,0.00,WSDL version 420,2013-02-16 16:45:00,
2013-02-16 11:50:00,37.4,3.9,28.91,WNW,295,1.3,5.4,24,0.00,,,0.00,WSDL version 420,2013-02-16 16:50:00,
2013-02-16 11:55:00,37.4,2.8,28.91,NW,323,3.0,6.5,22,0.00,,,0.00,WSDL version 420,2013-02-16 16:55:00,
2013-02-16 12:00:00,36.1,0.9,28.91,SE,135,2.1,6.5,22,-99.99,,,-99.99,WSDL version 420,2013-02-16 17:00:00,
2013-02-16 12:05:00,35.7,0.5,28.91,WSW,245,1.3,5.8,22,0.00,,,0.00,WSDL version 420,2013-02-16 17:05:00,
2013-02-16 12:10:00,35.4,0.3,28.91,NW,312,3.1,5.8,22,-99.99,,,-99.99,WSDL version 420,2013-02-16 17:10:00,
2013-02-16 12:15:00,36.4,1.1,28.91,NNE,20,2.7,4.3,22,0.00,,,0.00,WSDL version 420,2013-02-16 17:15:00,
2013-02-16 12:20:00,36.1,0.9,28.91,WNW,300,4.7,7.4,22,0.00,,,0.00,WSDL version 420,2013-02-16 17:20:00,
2013-02-16 12:25:00,35.2,0.1,28.91,WNW,290,3.8,7.4,22,0.00,,,0.00,WSDL version 420,2013-02-16 17:25:00,
2013-02-16 12:30:00,34.5,-0.5,28.91,NNW,338,3.6,6.5,22,0.00,,,0.00,WSDL version 420,2013-02-16 17:30:00,
2013-02-16 12:35:00,34.9,-0.1,28.88,NW,304,2.2,7.4,22,0.00,,,0.00,WSDL version 420,2013-02-16 17:35:00,
2013-02-16 12:40:00,35.2,0.1,28.88,NW,318,3.4,7.4,22,0.00,,,0.00,WSDL version 420,2013-02-16 17:40:00,
2013-02-16 12:45:00,34.3,-0.6,28.88,South,169,1.3,6.0,22,-99.99,,,-99.99,WSDL version 420,2013-02-16 17:45:00,
2013-02-16 12:50:00,34.6,-0.3,28.88,West,280,1.3,6.0,22,-99.99,,,-99.99,WSDL version 420,2013-02-16 17:50:00,
2013-02-16 12:55:00,35.0,0.0,28.88,West,270,2.9,4.3,22,-99.99,,,-99.99,WSDL version 420,2013-02-16 17:55:00,
2013-02-16 13:00:00,35.0,-0.1,28.88,NE,45,2.5,4.7,22,-99.99,,,-99.99,WSDL version 420,2013-02-16 18:00:00,
2013-02-16 13:05:00,34.9,-0.1,28.88,SSW,208,0.9,4.7,22,0.00,,,0.00,WSDL version 420,2013-02-16 18:05:00,
2013-02-16 13:10:00,34.6,-0.3,28.88,NNE,20,1.6,4.9,22,0.00,,,0.00,WSDL version 420,2013-02-16 18:10:00,
2013-02-16 13:15:00,35.0,0.0,28.88,WNW,290,2.4,6.5,22,0.00,,,0.00,WSDL version 420,2013-02-16 18:15:00,
2013-02-16 13:20:00,35.4,0.3,28.88,East,93,1.5,6.5,22,0.00,,,0.00,WSDL version 420,2013-02-16 18:20:00,
2013-02-16 13:25:00,35.0,0.0,28.88,West,280,3.1,6.5,22,-99.99,,,-99.99,WSDL version 420,2013-02-16 18:25:00,
2013-02-16 13:30:00,33.9,-1.0,28.88,NW,313,3.7,6.5,22,0.00,,,0.00,WSDL version 420,2013-02-16 18:30:00,
2013-02-16 13:35:00,34.3,-0.6,28.88,WNW,293,2.1,4.9,22,-99.99,,,-99.99,WSDL version 420,2013-02-16 18:35:00,
2013-02-16 13:40:00,34.2,-0.7,28.88,WNW,285,4.3,6.9,22,0.00,,,0.00,WSDL version 420,2013-02-16 18:40:00,
2013-02-16 13:45:00,33.9,-0.9,28.88,SW,233,3.6,6.9,22,0.00,,,0.00,WSDL version 420,2013-02-16 18:45:00,
2013-02-16 13:50:00,34.5,-0.5,28.85,SSE,165,1.5,5.8,22,-99.99,,,-99.99,WSDL version 420,2013-02-16 18:50:00,
2013-02-16 13:55:00,34.3,-0.6,28.85,North,357,2.5,4.0,22,0.00,,,0.00,WSDL version 420,2013-02-16 18:55:00,
2013-02-16 14:00:00,33.9,-0.9,28.85,NW,323,1.5,4.7,22,-99.99,,,-99.99,WSDL version 420,2013-02-16 19:00:00,
2013-02-16 14:05:00,33.8,-0.9,28.85,West,270,2.1,4.7,22,-99.99,,,-99.99,WSDL version 420,2013-02-16 19:05:00,
2013-02-16 14:10:00,33.6,-0.6,28.85,NW,318,4.0,5.8,23,0.00,,,0.00,WSDL version 420,2013-02-16 19:10:00,
2013-02-16 14:15:00,33.3,-0.5,28.85,WNW,293,2.1,5.8,23,0.00,,,0.00,WSDL version 420,2013-02-16 19:15:00,
2013-02-16 14:21:00,32.7,-1.0,28.88,WNW,303,3.4,6.0,23,-99.99,,,-99.99,WSDL version 420,2013-02-16 19:21:00,
2013-02-16 14:26:00,32.6,-1.1,28.88,WNW,298,2.0,6.0,23,0.00,,,0.00,WSDL version 420,2013-02-16 19:26:00,
2013-02-16 14:31:00,32.1,0.5,28.88,WNW,299,3.1,6.3,23,-99.99,,,-99.99,WSDL version 420,2013-02-16 19:31:00,
2013-02-16 14:36:00,31.9,1.8,28.85,NNW,330,3.0,6.3,23,-99.99,,,-99.99,WSDL version 420,2013-02-16 19:36:00,
2013-02-16 14:41:00,31.4,1.3,28.85,West,278,4.1,6.0,23,-99.99,,,-99.99,WSDL version 420,2013-02-16 19:41:00,
2013-02-16 14:46:00,31.3,1.2,28.85,WNW,293,2.1,6.0,23,0.00,,,0.00,WSDL version 420,2013-02-16 19:46:00,
2013-02-16 14:51:00,31.9,0.6,28.88,NW,312,1.1,4.9,23,-99.99,,,-99.99,WSDL version 420,2013-02-16 19:51:00,
2013-02-16 14:56:00,32.8,-1.0,28.88,NNW,338,2.5,4.3,23,0.00,,,0.00,WSDL version 420,2013-02-16 19:56:00,
2013-02-16 15:01:00,33.3,-0.6,28.88,West,268,1.4,4.3,23,-99.99,,,-99.99,WSDL version 420,2013-02-16 20:01:00,
2013-02-16 15:06:00,33.9,-0.7,28.85,WNW,287,0.8,3.4,22,0.00,,,0.00,WSDL version 420,2013-02-16 20:06:00,
2013-02-16 15:11:00,34.3,-0.6,28.85,NW,323,2.2,4.0,22,0.00,,,0.00,WSDL version 420,2013-02-16 20:11:00,
2013-02-16 15:16:00,34.0,-0.9,28.85,NW,304,3.0,5.4,22,0.00,,,0.00,WSDL version 420,2013-02-16 20:16:00,
2013-02-16 15:21:00,33.8,-0.9,28.85,WNW,298,1.3,5.4,23,0.00,,,0.00,WSDL version 420,2013-02-16 20:21:00,
2013-02-16 15:26:00,33.0,-0.8,28.85,WNW,284,3.6,5.4,23,-99.99,,,-99.99,WSDL version 420,2013-02-16 20:26:00,
2013-02-16 15:31:00,32.6,-1.2,28.85,West,268,3.0,6.0,23,0.00,,,0.00,WSDL version 420,2013-02-16 20:31:00,
2013-02-16 15:36:00,32.8,-1.0,28.85,West,268,2.7,6.0,23,-99.99,,,-99.99,WSDL version 420,2013-02-16 20:36:00,
2013-02-16 15:41:00,32.7,-1.0,28.85,West,267,5.0,6.0,23,-99.99,,,-99.99,WSDL version 420,2013-02-16 20:41:00,
2013-02-16 15:46:00,32.5,-1.2,28.85,WNW,293,3.7,6.0,23,0.00,,,0.00,WSDL version 420,2013-02-16 20:46:00,
2013-02-16 15:51:00,32.5,-1.2,28.85,West,267,3.1,5.8,23,0.00,,,0.00,WSDL version 420,2013-02-16 20:51:00,
2013-02-16 15:56:00,32.2,-1.4,28.85,West,260,2.3,6.0,23,0.00,,,0.00,WSDL version 420,2013-02-16 20:56:00,
2013-02-16 16:01:00,32.1,0.2,28.85,West,267,3.1,6.0,23,0.00,,,0.00,WSDL version 420,2013-02-16 21:01:00,
2013-02-16 16:06:00,31.9,1.8,28.85,NW,313,3.5,7.2,23,0.00,,,0.00,WSDL version 420,2013-02-16 21:06:00,
2013-02-16 16:11:00,32.5,-1.3,28.85,WNW,289,3.6,7.2,23,0.00,,,0.00,WSDL version 420,2013-02-16 21:11:00,
2013-02-16 16:16:00,32.7,-1.0,28.85,West,273,4.0,7.6,23,-99.99,,,-99.99,WSDL version 420,2013-02-16 21:16:00,
2013-02-16 16:21:00,32.8,-0.9,28.85,WNW,290,3.5,7.6,23,-99.99,,,-99.99,WSDL version 420,2013-02-16 21:21:00,
2013-02-16 16:26:00,32.8,-1.0,28.85,West,276,3.5,7.4,23,-99.99,,,-99.99,WSDL version 420,2013-02-16 21:26:00,
2013-02-16 16:31:00,32.4,-1.3,28.85,NW,308,3.4,6.5,23,0.00,,,0.00,WSDL version 420,2013-02-16 21:31:00,
2013-02-16 16:36:00,32.0,0.4,28.85,West,273,4.4,6.3,23,0.00,,,0.00,WSDL version 420,2013-02-16 21:36:00,
2013-02-16 16:41:00,31.7,1.6,28.85,NW,308,4.0,6.3,23,0.00,,,0.00,WSDL version 420,2013-02-16 21:41:00,
2013-02-16 16:46:00,31.5,1.4,28.85,WNW,300,4.2,9.4,23,-99.99,,,-99.99,WSDL version 420,2013-02-16 21:46:00,
2013-02-16 16:51:00,31.4,1.3,28.88,West,262,2.0,9.4,23,0.00,,,0.00,WSDL version 420,2013-02-16 21:51:00,
2013-02-16 16:56:00,31.4,1.3,28.88,East,87,1.8,5.8,23,-99.99,,,-99.99,WSDL version 420,2013-02-16 21:56:00,
2013-02-16 17:01:00,31.6,1.5,28.88,NW,307,0.4,5.4,23,0.00,,,0.00,WSDL version 420,2013-02-16 22:01:00,
2013-02-16 17:06:00,31.2,1.1,28.88,ENE,60,2.9,5.6,23,-99.99,,,-99.99,WSDL version 420,2013-02-16 22:06:00,
2013-02-16 17:11:00,30.7,0.7,28.88,NNE,20,2.6,7.4,23,0.00,,,0.00,WSDL version 420,2013-02-16 22:11:00,
2013-02-16 17:16:00,30.6,0.6,28.88,NW,308,2.5,7.4,23,-99.99,,,-99.99,WSDL version 420,2013-02-16 22:16:00,
2013-02-16 17:21:00,30.4,0.4,28.88,NNW,328,0.0,4.3,23,0.00,,,0.00,WSDL version 420,2013-02-16 22:21:00,
2013-02-16 17:26:00,30.4,0.4,28.88,NW,315,1.3,3.6,23,-99.99,,,-99.99,WSDL version 420,2013-02-16 22:26:00,
2013-02-16 17:31:00,30.3,0.3,28.88,WNW,298,3.0,4.3,23,0.00,,,0.00,WSDL version 420,2013-02-16 22:31:00,
2013-02-16 17:36:00,30.1,0.2,28.88,NNW,341,4.8,9.6,23,0.00,,,0.00,WSDL version 420,2013-02-16 22:36:00,
2013-02-16 17:41:00,29.9,0.0,28.88,WNW,295,2.7,9.6,23,-99.99,,,-99.99,WSDL version 420,2013-02-16 22:41:00,
2013-02-16 17:46:00,29.7,-0.2,28.88,North,352,2.8,5.8,23,-99.99,,,-99.99,WSDL version 420,2013-02-16 22:46:00,
2013-02-16 17:51:00,29.4,-0.4,28.88,NW,323,3.6,6.0,23,-99.99,,,-99.99,WSDL version 420,2013-02-16 22:51:00,
2013-02-16 17:56:00,29.1,-0.7,28.88,West,275,3.4,6.0,23,0.00,,,0.00,WSDL version 420,2013-02-16 22:56:00,
2013-02-16 18:01:00,28.7,-1.1,28.88,NW,318,2.4,5.8,23,-99.99,,,-99.99,WSDL version 420,2013-02-16 23:01:00,
2013-02-16 18:06:00,28.5,-1.3,28.88,NW,305,0.6,4.0,23,-99.99,,,-99.99,WSDL version 420,2013-02-16 23:06:00,
2013-02-16 18:11:00,28.2,-0.5,28.88,North,354,2.6,4.3,26,0.00,,,0.00,WSDL version 420,2013-02-16 23:11:00,
2013-02-16 18:16:00,28.1,0.8,28.88,NW,320,0.7,6.3,26,0.00,,,0.00,WSDL version 420,2013-02-16 23:16:00,
2013-02-16 18:21:00,28.0,0.7,28.88,NW,305,2.3,6.3,26,0.00,,,0.00,WSDL version 420,2013-02-16 23:21:00,
2013-02-16 18:26:00,27.9,0.5,28.88,NE,56,0.8,4.3,26,0.00,,,0.00,WSDL version 420,2013-02-16 23:26:00,
2013-02-16 18:31:00,27.7,0.4,28.88,East,83,2.1,2.7,26,-99.99,,,-99.99,WSDL version 420,2013-02-16 23:31:00,
2013-02-16 18:36:00,27.5,0.2,28.88,ESE,113,0.0,2.7,26,0.00,,,0.00,WSDL version 420,2013-02-16 23:36:00,
2013-02-16 18:41:00,27.2,-0.1,28.88,ESE,113,0.0,2.2,26,0.00,,,0.00,WSDL version 420,2013-02-16 23:41:00,
2013-02-16 18:46:00,26.8,0.7,28.88,SE,132,0.0,0.0,29,-99.99,,,-99.99,WSDL version 420,2013-02-16 23:46:00,
2013-02-16 18:51:00,26.2,1.1,28.88,SE,135,0.0,0.0,29,0.00,,,0.00,WSDL version 420,2013-02-16 23:51:00,
2013-02-16 18:56:00,25.9,0.9,28.88,SE,135,0.0,0.0,29,0.00,,,0.00,WSDL version 420,2013-02-16 23:56:00,
2013-02-16 19:01:00,25.4,0.4,28.88,SSE,148,0.0,0.0,29,-99.99,,,-99.99,WSDL version 420,2013-02-17 00:01:00,
2013-02-16 19:06:00,24.9,0.8,28.88,WNW,293,0.0,1.3,32,-99.99,,,-99.99,WSDL version 420,2013-02-17 00:06:00,
2013-02-16 19:11:00,24.7,1.7,28.88,WNW,293,0.0,1.3,32,-99.99,,,-99.99,WSDL version 420,2013-02-17 00:11:00,
2013-02-16 19:16:00,24.4,1.4,28.88,WNW,293,0.6,1.3,32,0.00,,,0.00,WSDL version 420,2013-02-17 00:16:00,
2013-02-16 19:21:00,24.2,1.2,28.88,WNW,293,0.0,1.3,32,0.00,,,0.00,WSDL version 420,2013-02-17 00:21:00,
2013-02-16 19:26:00,24.1,1.7,28.88,NW,315,1.5,2.5,33,-99.99,,,-99.99,WSDL version 420,2013-02-17 00:26:00,
2013-02-16 19:31:00,23.9,2.0,28.88,WNW,293,1.8,2.5,34,0.00,,,0.00,WSDL version 420,2013-02-17 00:31:00,
2013-02-16 19:36:00,23.9,3.4,28.88,WNW,293,1.8,2.7,37,-99.99,,,-99.99,WSDL version 420,2013-02-17 00:36:00,
2013-02-16 19:41:00,23.7,3.6,28.88,NW,315,1.8,2.7,37,-99.99,,,-99.99,WSDL version 420,2013-02-17 00:41:00,
2013-02-16 19:46:00,23.4,3.8,28.88,NW,318,1.8,2.5,38,-99.99,,,-99.99,WSDL version 420,2013-02-17 00:46:00,
2013-02-16 19:51:00,23.3,4.3,28.88,NNW,333,1.9,2.7,40,0.00,,,0.00,WSDL version 420,2013-02-17 00:51:00,
2013-02-16 19:56:00,23.2,4.7,28.88,NW,312,2.1,2.7,41,-99.99,,,-99.99,WSDL version 420,2013-02-17 00:56:00,
2013-02-16 20:01:00,23.0,5.2,28.88,NNW,333,1.4,2.5,42,-99.99,,,-99.99,WSDL version 420,2013-02-17 01:01:00,
2013-02-16 20:06:00,22.9,4.9,28.88,WNW,293,1.1,2.5,41,0.00,,,0.00,WSDL version 420,2013-02-17 01:06:00,
2013-02-16 20:11:00,22.8,4.9,28.88,WNW,293,0.0,2.0,42,-99.99,,,-99.99,WSDL version 420,2013-02-17 01:11:00,
2013-02-16 20:16:00,22.4,4.7,28.88,WNW,293,0.0,0.0,42,-99.99,,,-99.99,WSDL version 420,2013-02-17 01:16:00,
2013-02-16 20:21:00,22.1,4.9,28.88,WNW,293,0.0,0.0,43,-99.99,,,-99.99,WSDL version 420,2013-02-17 01:21:00,
2013-02-16 20:26:00,21.5,4.5,28.88,WNW,293,0.0,0.0,43,-99.99,,,-99.99,WSDL version 420,2013-02-17 01:26:00,
2013-02-16 20:31:00,21.2,4.2,28.88,WNW,293,0.0,0.0,43,0.00,,,0.00,WSDL version 420,2013-02-17 01:31:00,
2013-02-16 20:36:00,21.0,4.2,28.88,WNW,293,0.0,0.0,44,-99.99,,,-99.99,WSDL version 420,2013-02-17 01:36:00,
2013-02-16 20:41:00,20.6,4.0,28.88,WNW,293,0.0,0.0,44,-99.99,,,-99.99,WSDL version 420,2013-02-17 01:41:00,
2013-02-16 20:46:00,20.4,3.8,28.88,WNW,293,0.0,0.0,44,0.00,,,0.00,WSDL version 420,2013-02-17 01:46:00,
2013-02-16 20:51:00,20.3,3.8,28.88,WNW,293,0.0,0.0,44,-99.99,,,-99.99,WSDL version 420,2013-02-17 01:51:00,
2013-02-16 20:56:00,20.3,3.8,28.88,WNW,293,0.0,0.0,44,-99.99,,,-99.99,WSDL version 420,2013-02-17 01:56:00,
2013-02-16 21:01:00,20.2,3.7,28.88,WNW,293,0.0,0.0,44,0.00,,,0.00,WSDL version 420,2013-02-17 02:01:00,
2013-02-16 21:06:00,19.8,3.8,28.88,WNW,293,0.0,0.0,45,-99.99,,,-99.99,WSDL version 420,2013-02-17 02:06:00,
2013-02-16 21:11:00,19.6,3.6,28.88,WNW,293,0.0,0.0,45,-99.99,,,-99.99,WSDL version 420,2013-02-17 02:11:00,
2013-02-16 21:16:00,19.3,3.8,28.88,WNW,293,0.0,0.0,46,-99.99,,,-99.99,WSDL version 420,2013-02-17 02:16:00,
2013-02-16 21:21:00,19.3,3.7,28.88,WNW,293,0.0,0.0,46,0.00,,,0.00,WSDL version 420,2013-02-17 02:21:00,
2013-02-16 21:26:00,19.0,3.5,28.88,WNW,293,0.0,0.0,46,-99.99,,,-99.99,WSDL version 420,2013-02-17 02:26:00,
2013-02-16 21:31:00,19.0,3.4,28.88,WNW,293,0.0,0.0,46,0.00,,,0.00,WSDL version 420,2013-02-17 02:31:00,
2013-02-16 21:36:00,19.0,3.6,28.85,WNW,293,0.0,0.0,47,0.00,,,0.00,WSDL version 420,2013-02-17 02:36:00,
2013-02-16 21:41:00,19.0,3.9,28.85,NW,305,0.0,0.0,47,-99.99,,,-99.99,WSDL version 420,2013-02-17 02:41:00,
2013-02-16 21:46:00,19.4,4.1,28.85,East,93,0.5,1.6,47,-99.99,,,-99.99,WSDL version 420,2013-02-17 02:46:00,
2013-02-16 21:51:00,19.7,4.4,28.85,East,90,0.0,1.6,47,-99.99,,,-99.99,WSDL version 420,2013-02-17 02:51:00,
2013-02-16 21:56:00,20.1,5.1,28.85,ESE,110,0.0,2.2,47,-99.99,,,-99.99,WSDL version 420,2013-02-17 02:56:00,
2013-02-16 22:01:00,20.5,5.3,28.85,SE,135,0.6,2.2,47,0.00,,,0.00,WSDL version 420,2013-02-17 03:01:00,
2013-02-16 22:06:00,21.5,6.5,28.88,NNW,332,4.1,6.9,50,0.00,,,0.00,WSDL version 420,2013-02-17 03:06:00,
2013-02-16 22:11:00,22.8,9.7,28.88,WNW,290,2.6,6.9,53,0.00,,,0.00,WSDL version 420,2013-02-17 03:11:00,
2013-02-16 22:16:00,23.3,10.0,28.88,NW,307,3.2,5.8,52,-99.99,,,-99.99,WSDL version 420,2013-02-17 03:16:00,
2013-02-16 22:21:00,23.7,9.6,28.88,NW,310,4.2,7.4,49,-99.99,,,-99.99,WSDL version 420,2013-02-17 03:21:00,
2013-02-16 22:26:00,24.1,8.8,28.88,WNW,302,2.9,7.4,47,-99.99,,,-99.99,WSDL version 420,2013-02-17 03:26:00,
2013-02-16 22:31:00,24.3,8.8,28.88,North,358,1.5,3.8,47,0.00,,,0.00,WSDL version 420,2013-02-17 03:31:00,
2013-02-16 22:36:00,24.3,8.8,28.85,WNW,290,1.6,3.8,47,-99.99,,,-99.99,WSDL version 420,2013-02-17 03:36:00,
2013-02-16 22:41:00,24.4,9.5,28.85,West,264,2.5,3.8,49,0.00,,,0.00,WSDL version 420,2013-02-17 03:41:00,
2013-02-16 22:46:00,24.3,9.8,28.85,WNW,300,1.9,5.4,49,0.00,,,0.00,WSDL version 420,2013-02-17 03:46:00,
2013-02-16 22:51:00,24.3,9.6,28.85,NW,304,1.2,5.4,49,0.00,,,0.00,WSDL version 420,2013-02-17 03:51:00,
2013-02-16 22:56:00,24.3,9.6,28.85,NW,313,1.2,3.1,49,-99.99,,,-99.99,WSDL version 420,2013-02-17 03:56:00,
2013-02-16 23:01:00,24.3,9.6,28.85,North,360,0.7,2.9,49,0.00,,,0.00,WSDL version 420,2013-02-17 04:01:00,
2013-02-16 23:06:00,24.0,9.2,28.85,NW,323,1.6,3.1,49,-99.99,,,-99.99,WSDL version 420,2013-02-17 04:06:00,
2013-02-16 23:11:00,23.9,9.3,28.85,WNW,293,0.0,3.1,49,0.00,,,0.00,WSDL version 420,2013-02-17 04:11:00,
2013-02-16 23:16:00,23.9,9.3,28.85,West,267,1.8,2.7,49,0.00,,,0.00,WSDL version 420,2013-02-17 04:16:00,
2013-02-16 23:21:00,24.1,9.8,28.85,West,262,0.4,4.0,50,-99.99,,,-99.99,WSDL version 420,2013-02-17 04:21:00,
2013-02-16 23:26:00,24.2,10.5,28.85,NW,318,1.1,4.0,52,0.00,,,0.00,WSDL version 420,2013-02-17 04:26:00,
2013-02-16 23:31:00,24.3,10.9,28.85,West,278,2.5,4.7,53,0.00,,,0.00,WSDL version 420,2013-02-17 04:31:00,
2013-02-16 23:36:00,24.2,11.1,28.85,NW,312,1.5,5.4,53,-99.99,,,-99.99,WSDL version 420,2013-02-17 04:36:00,
2013-02-16 23:41:00,24.1,11.2,28.85,NW,312,2.9,5.4,54,0.00,,,0.00,WSDL version 420,2013-02-17 04:41:00,
2013-02-16 23:46:00,24.1,11.4,28.85,NW,305,3.2,4.3,54,0.00,,,0.00,WSDL version 420,2013-02-17 04:46:00,
2013-02-16 23:51:00,24.0,11.3,28.82,WNW,298,0.0,4.0,54,0.00,,,0.00,WSDL version 420,2013-02-17 04:51:00,
2013-02-16 23:56:00,23.9,11.5,28.82,NW,323,2.8,4.9,55,0.00,,,0.00,WSDL version 420,2013-02-17 04:56:00,